Antonino, Kansas
Current Conditions -  °F | °C
As of 3:15 PM on Tuesday 21 Oct 2014 (Local Time) from KHYS Reporting Station
Clear Clear  
Wind Chill: 79°   Ceiling: Unl
Heat Index: 80°   Visibility: 10mi
Dew Point: 59°   Wind: 14mph
Humidity: 51%   Direction: 160°SSE
Pressure: 29.99"   Gusts: 20mph
Location:  38.8338°N, 99.3297°W
Report Text: KHYS 212015Z AUTO 16012G17KT 10SM CLR 26/15 A2999 RMK AO1
Loading
Personal Weather Stations






























Interactive Weather Map
Tropical Storm Tracking
New forecast layout! Learn more

10-Day Weather Forecast

Advertisements
Track Severe Weather on mobile